Terminal Aerodrome Forecast
Issued by NWS Rapid City, SD

Home | Current Version | Previous Version | Graphics & Text | Print | Product List | Glossary On
Versions: 1 2 3 4 5 6 7 8 9 10 11 12 13 14
000
FTUS43 KUNR 071120
TAFRAP
TAF
KRAP 071120Z 0712/0812 32026G40KT P6SM SCT120
     FM071600 32044G58KT P6SM SCT120
     FM080100 32020G30KT P6SM SCT200=

USA.gov is the U.S. government's official web portal to all federal, state and local government web resources and services.